sensor_id;sensor_type;location;lat;lon;timestamp;P1;durP1;ratioP1;P2;durP2;ratioP2
12884;SDS011;6510;51.362;7.370;2022-07-10T00:00:30;4.33;;;1.40;;
12884;SDS011;6510;51.362;7.370;2022-07-10T00:02:56;5.57;;;1.50;;
12884;SDS011;6510;51.362;7.370;2022-07-10T00:05:23;4.07;;;1.40;;
12884;SDS011;6510;51.362;7.370;2022-07-10T00:07:49;3.17;;;1.47;;
12884;SDS011;6510;51.362;7.370;2022-07-10T00:10:19;2.57;;;1.43;;
12884;SDS011;6510;51.362;7.370;2022-07-10T00:12:47;2.47;;;1.20;;
12884;SDS011;6510;51.362;7.370;2022-07-10T00:15:14;3.83;;;1.27;;
12884;SDS011;6510;51.362;7.370;2022-07-10T00:17:40;4.23;;;1.40;;
12884;SDS011;6510;51.362;7.370;2022-07-10T00:20:07;3.10;;;1.40;;
12884;SDS011;6510;51.362;7.370;2022-07-10T00:22:34;6.53;;;1.60;;
12884;SDS011;6510;51.362;7.370;2022-07-10T00:25:10;5.67;;;1.37;;
12884;SDS011;6510;51.362;7.370;2022-07-10T00:27:36;4.00;;;1.27;;
12884;SDS011;6510;51.362;7.370;2022-07-10T00:30:03;3.67;;;1.33;;
12884;SDS011;6510;51.362;7.370;2022-07-10T00:32:29;3.57;;;1.50;;
12884;SDS011;6510;51.362;7.370;2022-07-10T00:34:55;4.07;;;1.40;;
12884;SDS011;6510;51.362;7.370;2022-07-10T00:37:20;4.93;;;1.20;;
12884;SDS011;6510;51.362;7.370;2022-07-10T00:39:46;2.30;;;1.30;;
12884;SDS011;6510;51.362;7.370;2022-07-10T00:42:13;4.33;;;1.63;;
12884;SDS011;6510;51.362;7.370;2022-07-10T00:44:40;4.53;;;1.47;;
12884;SDS011;6510;51.362;7.370;2022-07-10T00:47:07;2.80;;;1.33;;
12884;SDS011;6510;51.362;7.370;2022-07-10T00:49:34;4.47;;;1.43;;
12884;SDS011;6510;51.362;7.370;2022-07-10T00:52:02;2.90;;;1.23;;
12884;SDS011;6510;51.362;7.370;2022-07-10T00:54:32;3.70;;;1.50;;
12884;SDS011;6510;51.362;7.370;2022-07-10T00:56:59;3.37;;;1.33;;
12884;SDS011;6510;51.362;7.370;2022-07-10T00:59:26;3.87;;;1.40;;
12884;SDS011;6510;51.362;7.370;2022-07-10T01:01:52;6.83;;;1.37;;
12884;SDS011;6510;51.362;7.370;2022-07-10T01:04:19;4.93;;;1.33;;
12884;SDS011;6510;51.362;7.370;2022-07-10T01:06:45;3.33;;;1.30;;
12884;SDS011;6510;51.362;7.370;2022-07-10T01:09:11;4.47;;;1.10;;
12884;SDS011;6510;51.362;7.370;2022-07-10T01:11:37;3.20;;;1.27;;
12884;SDS011;6510;51.362;7.370;2022-07-10T01:14:03;6.17;;;1.47;;
12884;SDS011;6510;51.362;7.370;2022-07-10T01:16:30;4.23;;;1.20;;
12884;SDS011;6510;51.362;7.370;2022-07-10T01:18:56;3.47;;;1.13;;
12884;SDS011;6510;51.362;7.370;2022-07-10T01:21:32;4.07;;;1.27;;
12884;SDS011;6510;51.362;7.370;2022-07-10T01:24:06;3.50;;;1.53;;
12884;SDS011;6510;51.362;7.370;2022-07-10T01:26:34;4.20;;;1.20;;
12884;SDS011;6510;51.362;7.370;2022-07-10T01:29:04;3.80;;;1.40;;
12884;SDS011;6510;51.362;7.370;2022-07-10T01:31:31;4.47;;;1.53;;
12884;SDS011;6510;51.362;7.370;2022-07-10T01:33:58;5.27;;;1.40;;
12884;SDS011;6510;51.362;7.370;2022-07-10T01:36:25;4.93;;;1.23;;
12884;SDS011;6510;51.362;7.370;2022-07-10T01:38:54;3.73;;;1.20;;
12884;SDS011;6510;51.362;7.370;2022-07-10T01:41:21;3.90;;;1.40;;
12884;SDS011;6510;51.362;7.370;2022-07-10T01:43:48;4.00;;;1.30;;
12884;SDS011;6510;51.362;7.370;2022-07-10T01:46:14;2.77;;;1.27;;
12884;SDS011;6510;51.362;7.370;2022-07-10T01:48:40;4.33;;;1.30;;
12884;SDS011;6510;51.362;7.370;2022-07-10T01:51:07;3.10;;;1.17;;
12884;SDS011;6510;51.362;7.370;2022-07-10T01:53:33;3.10;;;1.30;;
12884;SDS011;6510;51.362;7.370;2022-07-10T01:56:00;3.27;;;1.40;;
12884;SDS011;6510;51.362;7.370;2022-07-10T01:58:27;4.13;;;1.63;;
12884;SDS011;6510;51.362;7.370;2022-07-10T02:00:53;3.13;;;1.40;;
12884;SDS011;6510;51.362;7.370;2022-07-10T02:03:19;3.47;;;1.50;;
12884;SDS011;6510;51.362;7.370;2022-07-10T02:06:03;5.93;;;1.43;;
12884;SDS011;6510;51.362;7.370;2022-07-10T02:08:28;4.63;;;1.30;;
12884;SDS011;6510;51.362;7.370;2022-07-10T02:10:54;4.90;;;1.30;;
12884;SDS011;6510;51.362;7.370;2022-07-10T02:13:20;3.27;;;0.97;;
12884;SDS011;6510;51.362;7.370;2022-07-10T02:15:46;3.73;;;1.20;;
12884;SDS011;6510;51.362;7.370;2022-07-10T02:18:12;3.83;;;1.20;;
12884;SDS011;6510;51.362;7.370;2022-07-10T02:20:38;1.97;;;0.90;;
12884;SDS011;6510;51.362;7.370;2022-07-10T02:23:04;8.30;;;1.63;;
12884;SDS011;6510;51.362;7.370;2022-07-10T02:25:31;3.67;;;1.23;;
12884;SDS011;6510;51.362;7.370;2022-07-10T02:27:57;4.13;;;1.30;;
12884;SDS011;6510;51.362;7.370;2022-07-10T02:30:23;10.50;;;1.63;;
12884;SDS011;6510;51.362;7.370;2022-07-10T02:32:49;3.40;;;1.50;;
12884;SDS011;6510;51.362;7.370;2022-07-10T02:35:14;1.87;;;1.20;;
12884;SDS011;6510;51.362;7.370;2022-07-10T02:37:40;4.63;;;1.50;;
12884;SDS011;6510;51.362;7.370;2022-07-10T02:40:06;2.27;;;1.10;;
12884;SDS011;6510;51.362;7.370;2022-07-10T02:42:32;3.90;;;1.20;;
12884;SDS011;6510;51.362;7.370;2022-07-10T02:44:58;6.93;;;1.30;;
12884;SDS011;6510;51.362;7.370;2022-07-10T02:47:24;5.03;;;1.50;;
12884;SDS011;6510;51.362;7.370;2022-07-10T02:49:49;5.90;;;1.30;;
12884;SDS011;6510;51.362;7.370;2022-07-10T02:52:15;3.47;;;1.10;;
12884;SDS011;6510;51.362;7.370;2022-07-10T02:54:41;4.00;;;1.00;;
12884;SDS011;6510;51.362;7.370;2022-07-10T02:57:07;4.47;;;1.33;;
12884;SDS011;6510;51.362;7.370;2022-07-10T02:59:33;5.90;;;1.60;;
12884;SDS011;6510;51.362;7.370;2022-07-10T03:01:58;5.07;;;1.50;;
12884;SDS011;6510;51.362;7.370;2022-07-10T03:04:24;2.80;;;1.30;;
12884;SDS011;6510;51.362;7.370;2022-07-10T03:06:50;4.53;;;1.40;;
12884;SDS011;6510;51.362;7.370;2022-07-10T03:09:16;1.63;;;1.13;;
12884;SDS011;6510;51.362;7.370;2022-07-10T03:11:42;4.97;;;1.70;;
12884;SDS011;6510;51.362;7.370;2022-07-10T03:14:08;3.63;;;1.20;;
12884;SDS011;6510;51.362;7.370;2022-07-10T03:16:33;8.90;;;1.87;;
12884;SDS011;6510;51.362;7.370;2022-07-10T03:18:59;5.63;;;1.50;;
12884;SDS011;6510;51.362;7.370;2022-07-10T03:21:25;4.20;;;1.30;;
12884;SDS011;6510;51.362;7.370;2022-07-10T03:23:50;4.90;;;1.50;;
12884;SDS011;6510;51.362;7.370;2022-07-10T03:26:16;5.03;;;1.70;;
12884;SDS011;6510;51.362;7.370;2022-07-10T03:28:41;2.47;;;0.90;;
12884;SDS011;6510;51.362;7.370;2022-07-10T03:31:07;4.33;;;1.80;;
12884;SDS011;6510;51.362;7.370;2022-07-10T03:33:33;6.40;;;1.43;;
12884;SDS011;6510;51.362;7.370;2022-07-10T03:35:58;7.00;;;1.37;;
12884;SDS011;6510;51.362;7.370;2022-07-10T03:38:26;3.97;;;1.23;;
12884;SDS011;6510;51.362;7.370;2022-07-10T03:40:52;4.07;;;1.40;;
12884;SDS011;6510;51.362;7.370;2022-07-10T03:43:18;2.70;;;1.50;;
12884;SDS011;6510;51.362;7.370;2022-07-10T03:45:43;4.53;;;1.43;;
12884;SDS011;6510;51.362;7.370;2022-07-10T03:48:09;4.07;;;1.43;;
12884;SDS011;6510;51.362;7.370;2022-07-10T03:50:34;3.50;;;1.50;;
12884;SDS011;6510;51.362;7.370;2022-07-10T03:53:00;6.57;;;1.50;;
12884;SDS011;6510;51.362;7.370;2022-07-10T03:55:26;5.73;;;1.67;;
12884;SDS011;6510;51.362;7.370;2022-07-10T03:57:51;2.93;;;1.40;;
12884;SDS011;6510;51.362;7.370;2022-07-10T04:00:27;5.77;;;1.47;;
12884;SDS011;6510;51.362;7.370;2022-07-10T04:02:57;5.93;;;1.40;;
12884;SDS011;6510;51.362;7.370;2022-07-10T04:05:24;4.23;;;1.70;;
12884;SDS011;6510;51.362;7.370;2022-07-10T04:07:51;3.80;;;1.60;;
12884;SDS011;6510;51.362;7.370;2022-07-10T04:10:17;3.90;;;1.70;;
12884;SDS011;6510;51.362;7.370;2022-07-10T04:12:43;4.53;;;1.70;;
12884;SDS011;6510;51.362;7.370;2022-07-10T04:15:09;5.57;;;1.40;;
12884;SDS011;6510;51.362;7.370;2022-07-10T04:17:36;6.13;;;1.70;;
12884;SDS011;6510;51.362;7.370;2022-07-10T04:20:02;4.43;;;1.50;;
12884;SDS011;6510;51.362;7.370;2022-07-10T04:22:28;5.20;;;1.57;;
12884;SDS011;6510;51.362;7.370;2022-07-10T04:24:54;5.10;;;1.70;;
12884;SDS011;6510;51.362;7.370;2022-07-10T04:27:20;4.90;;;1.70;;
12884;SDS011;6510;51.362;7.370;2022-07-10T04:29:46;3.70;;;1.47;;
12884;SDS011;6510;51.362;7.370;2022-07-10T04:32:12;6.67;;;1.50;;
12884;SDS011;6510;51.362;7.370;2022-07-10T04:34:37;5.10;;;1.53;;
12884;SDS011;6510;51.362;7.370;2022-07-10T04:37:04;5.67;;;1.60;;
12884;SDS011;6510;51.362;7.370;2022-07-10T04:39:30;5.03;;;1.57;;
12884;SDS011;6510;51.362;7.370;2022-07-10T04:41:56;3.43;;;1.20;;
12884;SDS011;6510;51.362;7.370;2022-07-10T04:44:21;6.33;;;2.30;;
12884;SDS011;6510;51.362;7.370;2022-07-10T04:46:47;4.97;;;1.60;;
12884;SDS011;6510;51.362;7.370;2022-07-10T04:49:13;4.77;;;1.90;;
12884;SDS011;6510;51.362;7.370;2022-07-10T04:51:38;6.07;;;1.50;;
12884;SDS011;6510;51.362;7.370;2022-07-10T04:54:04;4.10;;;1.50;;
12884;SDS011;6510;51.362;7.370;2022-07-10T04:56:30;7.63;;;1.63;;
12884;SDS011;6510;51.362;7.370;2022-07-10T04:58:55;5.97;;;1.60;;
12884;SDS011;6510;51.362;7.370;2022-07-10T05:01:21;6.87;;;1.50;;
12884;SDS011;6510;51.362;7.370;2022-07-10T05:03:47;4.57;;;2.03;;
12884;SDS011;6510;51.362;7.370;2022-07-10T05:06:13;6.00;;;1.60;;
12884;SDS011;6510;51.362;7.370;2022-07-10T05:08:38;5.67;;;1.83;;
12884;SDS011;6510;51.362;7.370;2022-07-10T05:11:04;6.00;;;1.90;;
12884;SDS011;6510;51.362;7.370;2022-07-10T05:13:30;9.73;;;1.93;;
12884;SDS011;6510;51.362;7.370;2022-07-10T05:15:55;4.57;;;1.53;;
12884;SDS011;6510;51.362;7.370;2022-07-10T05:18:21;4.27;;;1.50;;
12884;SDS011;6510;51.362;7.370;2022-07-10T05:20:47;4.77;;;1.50;;
12884;SDS011;6510;51.362;7.370;2022-07-10T05:23:13;10.07;;;1.70;;
12884;SDS011;6510;51.362;7.370;2022-07-10T05:25:38;4.73;;;1.73;;
12884;SDS011;6510;51.362;7.370;2022-07-10T05:28:05;4.90;;;1.50;;
12884;SDS011;6510;51.362;7.370;2022-07-10T05:30:31;6.30;;;1.63;;
12884;SDS011;6510;51.362;7.370;2022-07-10T05:32:57;3.50;;;1.30;;
12884;SDS011;6510;51.362;7.370;2022-07-10T05:35:23;4.67;;;1.50;;
12884;SDS011;6510;51.362;7.370;2022-07-10T05:37:48;6.23;;;1.80;;
12884;SDS011;6510;51.362;7.370;2022-07-10T05:40:14;5.20;;;1.50;;
12884;SDS011;6510;51.362;7.370;2022-07-10T05:42:40;4.37;;;1.40;;
12884;SDS011;6510;51.362;7.370;2022-07-10T05:45:05;3.30;;;1.40;;
12884;SDS011;6510;51.362;7.370;2022-07-10T05:47:32;5.87;;;1.50;;
12884;SDS011;6510;51.362;7.370;2022-07-10T05:50:00;5.93;;;1.43;;
12884;SDS011;6510;51.362;7.370;2022-07-10T05:52:26;4.67;;;1.73;;
12884;SDS011;6510;51.362;7.370;2022-07-10T05:54:53;5.83;;;1.80;;
12884;SDS011;6510;51.362;7.370;2022-07-10T05:57:32;3.43;;;1.50;;
12884;SDS011;6510;51.362;7.370;2022-07-10T05:59:58;8.83;;;1.87;;
12884;SDS011;6510;51.362;7.370;2022-07-10T06:02:23;4.77;;;1.50;;
12884;SDS011;6510;51.362;7.370;2022-07-10T06:04:49;6.13;;;1.37;;
12884;SDS011;6510;51.362;7.370;2022-07-10T06:07:15;8.53;;;1.63;;
12884;SDS011;6510;51.362;7.370;2022-07-10T06:09:41;3.50;;;1.40;;
12884;SDS011;6510;51.362;7.370;2022-07-10T06:12:07;4.17;;;1.57;;
12884;SDS011;6510;51.362;7.370;2022-07-10T06:14:33;8.27;;;1.50;;
12884;SDS011;6510;51.362;7.370;2022-07-10T06:16:59;5.63;;;1.70;;
12884;SDS011;6510;51.362;7.370;2022-07-10T06:19:24;3.67;;;1.43;;
12884;SDS011;6510;51.362;7.370;2022-07-10T06:21:50;3.50;;;1.30;;
12884;SDS011;6510;51.362;7.370;2022-07-10T06:24:35;7.80;;;1.80;;
12884;SDS011;6510;51.362;7.370;2022-07-10T06:27:01;2.47;;;1.20;;
12884;SDS011;6510;51.362;7.370;2022-07-10T06:29:27;6.33;;;1.40;;
12884;SDS011;6510;51.362;7.370;2022-07-10T06:31:53;5.70;;;1.50;;
12884;SDS011;6510;51.362;7.370;2022-07-10T06:34:18;5.93;;;1.60;;
12884;SDS011;6510;51.362;7.370;2022-07-10T06:36:45;3.97;;;1.30;;
12884;SDS011;6510;51.362;7.370;2022-07-10T06:39:10;3.42;;;1.10;;
12884;SDS011;6510;51.362;7.370;2022-07-10T06:41:36;3.80;;;1.40;;
12884;SDS011;6510;51.362;7.370;2022-07-10T06:44:02;4.97;;;1.27;;
12884;SDS011;6510;51.362;7.370;2022-07-10T06:46:28;3.45;;;1.10;;
12884;SDS011;6510;51.362;7.370;2022-07-10T06:48:54;3.25;;;1.27;;
12884;SDS011;6510;51.362;7.370;2022-07-10T06:51:19;5.63;;;1.60;;
12884;SDS011;6510;51.362;7.370;2022-07-10T06:53:45;4.53;;;1.33;;
12884;SDS011;6510;51.362;7.370;2022-07-10T06:56:11;3.63;;;1.07;;
12884;SDS011;6510;51.362;7.370;2022-07-10T06:58:39;7.20;;;1.70;;
12884;SDS011;6510;51.362;7.370;2022-07-10T07:01:04;3.87;;;1.20;;
12884;SDS011;6510;51.362;7.370;2022-07-10T07:03:30;4.20;;;1.30;;
12884;SDS011;6510;51.362;7.370;2022-07-10T07:05:56;2.77;;;1.27;;
12884;SDS011;6510;51.362;7.370;2022-07-10T07:08:21;7.93;;;1.50;;
12884;SDS011;6510;51.362;7.370;2022-07-10T07:10:47;4.47;;;1.37;;
12884;SDS011;6510;51.362;7.370;2022-07-10T07:13:12;4.70;;;1.50;;
12884;SDS011;6510;51.362;7.370;2022-07-10T07:15:38;2.70;;;1.13;;
12884;SDS011;6510;51.362;7.370;2022-07-10T07:18:07;3.13;;;1.17;;
12884;SDS011;6510;51.362;7.370;2022-07-10T07:20:33;3.80;;;1.30;;
12884;SDS011;6510;51.362;7.370;2022-07-10T07:23:18;4.17;;;1.30;;
12884;SDS011;6510;51.362;7.370;2022-07-10T07:25:44;3.40;;;1.23;;
12884;SDS011;6510;51.362;7.370;2022-07-10T07:28:13;5.33;;;1.27;;
12884;SDS011;6510;51.362;7.370;2022-07-10T07:30:44;3.67;;;1.10;;
12884;SDS011;6510;51.362;7.370;2022-07-10T07:33:13;4.33;;;1.23;;
12884;SDS011;6510;51.362;7.370;2022-07-10T07:35:40;3.87;;;1.50;;
12884;SDS011;6510;51.362;7.370;2022-07-10T07:38:05;2.60;;;1.20;;
12884;SDS011;6510;51.362;7.370;2022-07-10T07:40:31;5.23;;;1.47;;
12884;SDS011;6510;51.362;7.370;2022-07-10T07:42:58;4.37;;;1.50;;
12884;SDS011;6510;51.362;7.370;2022-07-10T07:45:24;3.80;;;1.53;;
12884;SDS011;6510;51.362;7.370;2022-07-10T07:47:51;5.97;;;1.50;;
12884;SDS011;6510;51.362;7.370;2022-07-10T07:50:18;3.87;;;1.30;;
12884;SDS011;6510;51.362;7.370;2022-07-10T07:52:46;4.40;;;1.60;;
12884;SDS011;6510;51.362;7.370;2022-07-10T07:55:12;8.00;;;1.70;;
12884;SDS011;6510;51.362;7.370;2022-07-10T07:57:39;2.80;;;1.47;;
12884;SDS011;6510;51.362;7.370;2022-07-10T08:00:06;3.60;;;1.33;;
12884;SDS011;6510;51.362;7.370;2022-07-10T08:02:33;6.93;;;1.37;;
12884;SDS011;6510;51.362;7.370;2022-07-10T08:04:59;4.30;;;1.43;;
12884;SDS011;6510;51.362;7.370;2022-07-10T08:07:41;3.23;;;1.17;;
12884;SDS011;6510;51.362;7.370;2022-07-10T08:10:14;8.83;;;2.03;;
12884;SDS011;6510;51.362;7.370;2022-07-10T08:12:42;5.73;;;1.77;;
12884;SDS011;6510;51.362;7.370;2022-07-10T08:15:08;2.93;;;1.23;;
12884;SDS011;6510;51.362;7.370;2022-07-10T08:17:36;6.93;;;1.63;;
12884;SDS011;6510;51.362;7.370;2022-07-10T08:20:02;3.50;;;1.80;;
12884;SDS011;6510;51.362;7.370;2022-07-10T08:22:30;3.63;;;1.37;;
12884;SDS011;6510;51.362;7.370;2022-07-10T08:24:56;6.17;;;1.47;;
12884;SDS011;6510;51.362;7.370;2022-07-10T08:27:22;5.07;;;1.33;;
12884;SDS011;6510;51.362;7.370;2022-07-10T08:29:48;2.57;;;1.43;;
12884;SDS011;6510;51.362;7.370;2022-07-10T08:32:14;9.00;;;1.73;;
12884;SDS011;6510;51.362;7.370;2022-07-10T08:34:39;2.43;;;1.20;;
12884;SDS011;6510;51.362;7.370;2022-07-10T08:39:51;2.87;;;1.43;;
12884;SDS011;6510;51.362;7.370;2022-07-10T08:42:17;4.73;;;1.50;;
12884;SDS011;6510;51.362;7.370;2022-07-10T08:44:43;3.47;;;1.20;;
12884;SDS011;6510;51.362;7.370;2022-07-10T08:47:09;8.07;;;1.77;;
12884;SDS011;6510;51.362;7.370;2022-07-10T08:49:38;5.87;;;1.37;;
12884;SDS011;6510;51.362;7.370;2022-07-10T08:52:13;7.30;;;1.80;;
12884;SDS011;6510;51.362;7.370;2022-07-10T08:54:42;3.47;;;1.50;;
12884;SDS011;6510;51.362;7.370;2022-07-10T08:57:09;6.97;;;1.90;;
12884;SDS011;6510;51.362;7.370;2022-07-10T08:59:35;6.83;;;1.80;;
12884;SDS011;6510;51.362;7.370;2022-07-10T09:02:01;4.83;;;1.60;;
12884;SDS011;6510;51.362;7.370;2022-07-10T09:04:26;6.57;;;1.67;;
12884;SDS011;6510;51.362;7.370;2022-07-10T09:06:53;8.37;;;1.87;;
12884;SDS011;6510;51.362;7.370;2022-07-10T09:09:20;5.57;;;1.67;;
12884;SDS011;6510;51.362;7.370;2022-07-10T09:11:46;4.90;;;1.60;;
12884;SDS011;6510;51.362;7.370;2022-07-10T09:21:10;5.03;;;2.50;;
12884;SDS011;6510;51.362;7.370;2022-07-10T09:23:36;5.43;;;2.80;;
12884;SDS011;6510;51.362;7.370;2022-07-10T09:26:02;5.90;;;2.60;;
12884;SDS011;6510;51.362;7.370;2022-07-10T09:28:29;7.47;;;3.10;;
12884;SDS011;6510;51.362;7.370;2022-07-10T09:30:56;4.23;;;2.40;;
12884;SDS011;6510;51.362;7.370;2022-07-10T09:33:27;3.83;;;2.93;;
12884;SDS011;6510;51.362;7.370;2022-07-10T09:35:57;8.00;;;3.43;;
12884;SDS011;6510;51.362;7.370;2022-07-10T09:41:25;7.30;;;3.40;;
12884;SDS011;6510;51.362;7.370;2022-07-10T09:44:03;5.53;;;3.20;;
12884;SDS011;6510;51.362;7.370;2022-07-10T09:46:33;4.90;;;2.87;;
12884;SDS011;6510;51.362;7.370;2022-07-10T09:49:09;3.37;;;3.07;;
12884;SDS011;6510;51.362;7.370;2022-07-10T09:51:43;4.63;;;3.40;;
12884;SDS011;6510;51.362;7.370;2022-07-10T09:54:10;5.40;;;3.27;;
12884;SDS011;6510;51.362;7.370;2022-07-10T09:56:40;4.30;;;3.87;;
12884;SDS011;6510;51.362;7.370;2022-07-10T09:59:14;3.87;;;3.57;;
12884;SDS011;6510;51.362;7.370;2022-07-10T10:01:42;4.47;;;3.07;;
12884;SDS011;6510;51.362;7.370;2022-07-10T10:04:13;4.73;;;3.30;;
12884;SDS011;6510;51.362;7.370;2022-07-10T10:06:40;5.00;;;3.40;;
12884;SDS011;6510;51.362;7.370;2022-07-10T10:11:36;4.77;;;3.50;;
12884;SDS011;6510;51.362;7.370;2022-07-10T10:14:03;4.03;;;3.10;;
12884;SDS011;6510;51.362;7.370;2022-07-10T10:16:31;4.37;;;3.33;;
12884;SDS011;6510;51.362;7.370;2022-07-10T10:18:59;4.90;;;3.33;;
12884;SDS011;6510;51.362;7.370;2022-07-10T10:21:43;3.40;;;3.10;;
12884;SDS011;6510;51.362;7.370;2022-07-10T10:24:10;3.53;;;3.23;;
12884;SDS011;6510;51.362;7.370;2022-07-10T10:26:36;4.20;;;3.30;;
12884;SDS011;6510;51.362;7.370;2022-07-10T10:29:02;3.17;;;2.87;;
12884;SDS011;6510;51.362;7.370;2022-07-10T10:31:29;2.90;;;2.70;;
12884;SDS011;6510;51.362;7.370;2022-07-10T10:33:56;3.27;;;2.63;;
12884;SDS011;6510;51.362;7.370;2022-07-10T10:41:54;4.17;;;3.20;;
12884;SDS011;6510;51.362;7.370;2022-07-10T10:44:20;5.97;;;2.70;;
12884;SDS011;6510;51.362;7.370;2022-07-10T10:49:15;3.27;;;2.80;;
12884;SDS011;6510;51.362;7.370;2022-07-10T10:52:00;4.03;;;3.00;;
12884;SDS011;6510;51.362;7.370;2022-07-10T10:54:27;2.83;;;2.63;;
12884;SDS011;6510;51.362;7.370;2022-07-10T10:57:13;3.93;;;2.90;;
12884;SDS011;6510;51.362;7.370;2022-07-10T10:59:47;3.50;;;3.20;;
12884;SDS011;6510;51.362;7.370;2022-07-10T11:02:30;4.13;;;3.30;;
12884;SDS011;6510;51.362;7.370;2022-07-10T11:15:37;7.03;;;5.47;;
12884;SDS011;6510;51.362;7.370;2022-07-10T11:18:04;6.43;;;5.83;;
12884;SDS011;6510;51.362;7.370;2022-07-10T11:20:33;8.63;;;6.80;;
12884;SDS011;6510;51.362;7.370;2022-07-10T11:23:16;8.17;;;7.37;;
12884;SDS011;6510;51.362;7.370;2022-07-10T11:26:11;9.03;;;7.97;;
12884;SDS011;6510;51.362;7.370;2022-07-10T11:31:21;9.87;;;9.00;;
12884;SDS011;6510;51.362;7.370;2022-07-10T11:33:48;11.67;;;8.60;;
12884;SDS011;6510;51.362;7.370;2022-07-10T11:36:23;9.27;;;8.30;;
12884;SDS011;6510;51.362;7.370;2022-07-10T11:41:24;9.43;;;8.40;;
12884;SDS011;6510;51.362;7.370;2022-07-10T11:43:51;8.33;;;7.53;;
12884;SDS011;6510;51.362;7.370;2022-07-10T11:46:21;9.20;;;7.50;;
12884;SDS011;6510;51.362;7.370;2022-07-10T11:48:50;8.97;;;7.90;;
12884;SDS011;6510;51.362;7.370;2022-07-10T11:56:27;10.47;;;7.90;;
12884;SDS011;6510;51.362;7.370;2022-07-10T11:59:08;9.57;;;8.67;;
12884;SDS011;6510;51.362;7.370;2022-07-10T12:01:42;11.10;;;9.17;;
12884;SDS011;6510;51.362;7.370;2022-07-10T12:04:09;9.73;;;8.83;;
12884;SDS011;6510;51.362;7.370;2022-07-10T12:06:36;10.40;;;9.30;;
12884;SDS011;6510;51.362;7.370;2022-07-10T12:09:04;10.87;;;8.50;;
12884;SDS011;6510;51.362;7.370;2022-07-10T12:11:31;9.07;;;8.17;;
12884;SDS011;6510;51.362;7.370;2022-07-10T12:16:50;9.70;;;8.70;;
12884;SDS011;6510;51.362;7.370;2022-07-10T12:19:18;10.17;;;8.23;;
12884;SDS011;6510;51.362;7.370;2022-07-10T12:21:47;8.57;;;7.77;;
12884;SDS011;6510;51.362;7.370;2022-07-10T12:24:15;8.90;;;8.10;;
12884;SDS011;6510;51.362;7.370;2022-07-10T12:26:42;8.53;;;7.70;;
12884;SDS011;6510;51.362;7.370;2022-07-10T12:32:00;8.20;;;7.33;;
12884;SDS011;6510;51.362;7.370;2022-07-10T12:34:33;7.83;;;7.23;;
12884;SDS011;6510;51.362;7.370;2022-07-10T12:37:08;9.10;;;8.30;;
12884;SDS011;6510;51.362;7.370;2022-07-10T12:39:36;8.53;;;7.83;;
12884;SDS011;6510;51.362;7.370;2022-07-10T12:42:10;9.10;;;8.20;;
12884;SDS011;6510;51.362;7.370;2022-07-10T12:44:37;9.30;;;8.40;;
12884;SDS011;6510;51.362;7.370;2022-07-10T12:47:06;7.93;;;7.23;;
12884;SDS011;6510;51.362;7.370;2022-07-10T12:49:57;8.90;;;8.00;;
12884;SDS011;6510;51.362;7.370;2022-07-10T12:52:30;10.53;;;8.73;;
12884;SDS011;6510;51.362;7.370;2022-07-10T12:55:04;9.03;;;8.23;;
12884;SDS011;6510;51.362;7.370;2022-07-10T12:57:30;10.37;;;8.53;;
12884;SDS011;6510;51.362;7.370;2022-07-10T13:00:02;8.20;;;7.40;;
12884;SDS011;6510;51.362;7.370;2022-07-10T13:02:30;7.37;;;6.60;;
12884;SDS011;6510;51.362;7.370;2022-07-10T13:04:56;6.63;;;5.93;;
12884;SDS011;6510;51.362;7.370;2022-07-10T13:07:33;5.77;;;5.27;;
12884;SDS011;6510;51.362;7.370;2022-07-10T13:10:03;5.53;;;5.10;;
12884;SDS011;6510;51.362;7.370;2022-07-10T13:12:31;4.60;;;4.20;;
12884;SDS011;6510;51.362;7.370;2022-07-10T13:15:03;4.27;;;3.97;;
12884;SDS011;6510;51.362;7.370;2022-07-10T13:17:29;3.30;;;3.10;;
12884;SDS011;6510;51.362;7.370;2022-07-10T13:19:54;2.93;;;2.73;;
12884;SDS011;6510;51.362;7.370;2022-07-10T13:22:21;2.67;;;2.57;;
12884;SDS011;6510;51.362;7.370;2022-07-10T13:24:47;2.67;;;2.47;;
12884;SDS011;6510;51.362;7.370;2022-07-10T13:27:12;4.73;;;3.13;;
12884;SDS011;6510;51.362;7.370;2022-07-10T13:29:38;3.97;;;3.67;;
12884;SDS011;6510;51.362;7.370;2022-07-10T13:32:04;4.07;;;3.23;;
12884;SDS011;6510;51.362;7.370;2022-07-10T13:34:30;3.00;;;2.80;;
12884;SDS011;6510;51.362;7.370;2022-07-10T13:36:56;3.40;;;3.20;;
12884;SDS011;6510;51.362;7.370;2022-07-10T13:39:22;3.27;;;3.00;;
12884;SDS011;6510;51.362;7.370;2022-07-10T13:41:47;4.03;;;3.60;;
12884;SDS011;6510;51.362;7.370;2022-07-10T13:44:13;3.17;;;2.90;;
12884;SDS011;6510;51.362;7.370;2022-07-10T13:46:39;2.80;;;2.60;;
12884;SDS011;6510;51.362;7.370;2022-07-10T13:49:05;2.43;;;2.20;;
12884;SDS011;6510;51.362;7.370;2022-07-10T13:54:44;1.87;;;1.67;;
12884;SDS011;6510;51.362;7.370;2022-07-10T13:57:10;1.90;;;1.80;;
12884;SDS011;6510;51.362;7.370;2022-07-10T13:59:36;1.80;;;1.70;;
12884;SDS011;6510;51.362;7.370;2022-07-10T14:02:01;1.92;;;1.83;;
12884;SDS011;6510;51.362;7.370;2022-07-10T14:04:27;1.83;;;1.73;;
12884;SDS011;6510;51.362;7.370;2022-07-10T14:06:53;2.93;;;1.93;;
12884;SDS011;6510;51.362;7.370;2022-07-10T14:09:19;2.67;;;2.00;;
12884;SDS011;6510;51.362;7.370;2022-07-10T14:11:47;2.90;;;1.83;;
12884;SDS011;6510;51.362;7.370;2022-07-10T14:14:13;3.23;;;2.03;;
12884;SDS011;6510;51.362;7.370;2022-07-10T14:16:39;2.37;;;2.17;;
12884;SDS011;6510;51.362;7.370;2022-07-10T14:19:04;2.73;;;2.53;;
12884;SDS011;6510;51.362;7.370;2022-07-10T14:21:30;2.70;;;2.47;;
12884;SDS011;6510;51.362;7.370;2022-07-10T14:23:56;3.80;;;2.43;;
12884;SDS011;6510;51.362;7.370;2022-07-10T14:26:21;2.30;;;2.10;;
12884;SDS011;6510;51.362;7.370;2022-07-10T14:28:48;2.17;;;1.97;;
12884;SDS011;6510;51.362;7.370;2022-07-10T14:31:13;2.47;;;2.07;;
12884;SDS011;6510;51.362;7.370;2022-07-10T14:33:39;2.47;;;2.00;;
12884;SDS011;6510;51.362;7.370;2022-07-10T14:36:05;2.13;;;1.97;;
12884;SDS011;6510;51.362;7.370;2022-07-10T14:38:31;1.75;;;1.65;;
12884;SDS011;6510;51.362;7.370;2022-07-10T14:40:57;2.20;;;1.92;;
12884;SDS011;6510;51.362;7.370;2022-07-10T14:43:24;1.70;;;1.60;;
12884;SDS011;6510;51.362;7.370;2022-07-10T14:45:49;4.03;;;1.27;;
12884;SDS011;6510;51.362;7.370;2022-07-10T14:48:16;2.20;;;1.45;;
12884;SDS011;6510;51.362;7.370;2022-07-10T14:50:41;2.17;;;1.47;;
12884;SDS011;6510;51.362;7.370;2022-07-10T14:53:07;2.15;;;1.52;;
12884;SDS011;6510;51.362;7.370;2022-07-10T14:55:34;3.27;;;1.63;;
12884;SDS011;6510;51.362;7.370;2022-07-10T14:58:01;1.40;;;1.30;;
12884;SDS011;6510;51.362;7.370;2022-07-10T15:00:27;2.97;;;1.53;;
12884;SDS011;6510;51.362;7.370;2022-07-10T15:02:53;2.00;;;1.80;;
12884;SDS011;6510;51.362;7.370;2022-07-10T15:05:18;1.97;;;1.50;;
12884;SDS011;6510;51.362;7.370;2022-07-10T15:07:44;1.77;;;1.67;;
12884;SDS011;6510;51.362;7.370;2022-07-10T15:10:10;1.90;;;1.73;;
12884;SDS011;6510;51.362;7.370;2022-07-10T15:12:37;2.30;;;1.90;;
12884;SDS011;6510;51.362;7.370;2022-07-10T15:15:06;2.47;;;1.90;;
12884;SDS011;6510;51.362;7.370;2022-07-10T15:17:36;3.33;;;2.27;;
12884;SDS011;6510;51.362;7.370;2022-07-10T15:20:05;4.27;;;2.50;;
12884;SDS011;6510;51.362;7.370;2022-07-10T15:22:31;3.40;;;2.30;;
12884;SDS011;6510;51.362;7.370;2022-07-10T15:24:57;3.77;;;2.40;;
12884;SDS011;6510;51.362;7.370;2022-07-10T15:27:23;3.57;;;2.83;;
12884;SDS011;6510;51.362;7.370;2022-07-10T15:29:50;4.10;;;2.67;;
12884;SDS011;6510;51.362;7.370;2022-07-10T15:32:17;3.83;;;2.67;;
12884;SDS011;6510;51.362;7.370;2022-07-10T15:34:43;4.23;;;3.07;;
12884;SDS011;6510;51.362;7.370;2022-07-10T15:37:08;4.23;;;2.80;;
12884;SDS011;6510;51.362;7.370;2022-07-10T15:39:34;5.27;;;3.20;;
12884;SDS011;6510;51.362;7.370;2022-07-10T15:42:06;4.67;;;3.00;;
12884;SDS011;6510;51.362;7.370;2022-07-10T15:44:33;4.57;;;2.73;;
12884;SDS011;6510;51.362;7.370;2022-07-10T15:46:58;3.10;;;2.80;;
12884;SDS011;6510;51.362;7.370;2022-07-10T15:49:24;3.40;;;2.67;;
12884;SDS011;6510;51.362;7.370;2022-07-10T15:51:50;3.97;;;2.50;;
12884;SDS011;6510;51.362;7.370;2022-07-10T15:54:15;4.13;;;2.70;;